Cloverdale, Vermont
Current Conditions -  °F | °C
As of 11:20 PM on Wednesday 17 Dec 2014 (Local Time) from KMVL Reporting Station
Light Rain Light Rain  
Wind Chill: 34°   Ceiling: 1500
Heat Index: 34°   Visibility: 5mi
Dew Point: 32°   Wind: 0mph
Humidity: 92%   Direction: NA
Pressure: 29.73"   Gusts: NA
Location:  44.6543°N, 72.8545°W
Report Text: KMVL 180420Z AUTO 00000KT 5SM -RA BR SCT005 BKN015 OVC020 01/00 A2973 RMK AO2 RAB02 P0000 T00110000 TSNO
Loading
Personal Weather Stations






























Interactive Weather Map New forecast layout! Learn more

10-Day Weather Forecast

Advertisements
Track Severe Weather on mobile